Time;durP1;ratioP1;P1;durP2;ratioP2;P2;SDS_P1;SDS_P2;PMS_P1;PMS_P2;Temp;Humidity;BMP_temperature;BMP_pressure;BME280_temperature;BME280_humidity;BME280_pressure;Samples;Min_cycle;Max_cycle;Signal;HPM_P1;HPM_P2
2022/12/04 00:01:23;;;;;;;39.20;23.85;;;;;;;0.43;95.71;101753.66;5010257;28;20033;-62
2022/12/04 00:03:53;;;;;;;37.28;25.35;;;;;;;0.34;96.06;101754.50;5009435;28;20029;-62
2022/12/04 00:06:20;;;;;;;42.88;31.77;;;;;;;0.58;94.87;101753.22;5019581;28;20033;-62
2022/12/04 00:08:46;;;;;;;38.97;23.33;;;;;;;0.42;95.42;101756.50;5008255;28;20424;-62
2022/12/04 00:11:15;;;;;;;45.17;25.70;;;;;;;0.09;97.24;101753.19;5015790;28;20449;-62
2022/12/04 00:13:41;;;;;;;49.13;30.23;;;;;;;0.08;97.31;101754.19;5009555;28;20026;-62
2022/12/04 00:16:10;;;;;;;44.83;25.67;;;;;;;0.24;96.22;101749.09;5009740;28;20408;-62
2022/12/04 00:18:36;;;;;;;50.65;29.88;;;;;;;0.18;96.30;101743.41;5023529;28;20041;-63
2022/12/04 00:21:07;;;;;;;43.75;24.05;;;;;;;0.30;95.67;101733.31;5009464;28;20026;-62
2022/12/04 00:23:34;;;;;;;36.85;25.00;;;;;;;0.83;92.92;101736.41;5008600;28;20372;-62
2022/12/04 00:26:04;;;;;;;43.65;26.98;;;;;;;0.44;95.35;101735.59;5009603;28;20255;-62
2022/12/04 00:28:30;;;;;;;37.17;23.77;;;;;;;0.59;93.33;101731.44;5009573;28;20038;-63
2022/12/04 00:30:55;;;;;;;38.15;23.33;;;;;;;0.71;92.43;101735.72;5009477;28;20083;-62
2022/12/04 00:33:21;;;;;;;45.92;26.52;;;;;;;0.41;94.41;101744.00;5005992;28;20751;-61
2022/12/04 00:35:46;;;;;;;37.30;24.80;;;;;;;0.47;94.81;101727.22;5003892;28;20093;-62
2022/12/04 00:38:11;;;;;;;33.28;20.45;;;;;;;0.56;93.65;101730.88;5008760;28;20026;-62
2022/12/04 00:40:37;;;;;;;32.97;19.35;;;;;;;0.38;95.03;101731.63;5007599;28;20030;-62
2022/12/04 00:43:02;;;;;;;33.55;24.10;;;;;;;0.65;93.76;101732.72;5009157;28;20334;-62
2022/12/04 00:45:27;;;;;;;37.05;24.00;;;;;;;0.37;94.96;101734.47;5007879;28;20087;-62
2022/12/04 00:47:53;;;;;;;45.97;26.52;;;;;;;0.11;96.10;101735.03;4999669;28;20033;-62
2022/12/04 00:50:18;;;;;;;36.85;28.52;;;;;;;0.76;92.68;101721.75;4989224;28;20038;-62
2022/12/04 00:52:43;;;;;;;41.85;25.25;;;;;;;0.47;93.84;101727.22;5008247;28;20032;-62
2022/12/04 00:55:09;;;;;;;40.20;21.77;;;;;;;0.33;94.80;101722.22;5006037;28;20034;-62
2022/12/04 00:57:34;;;;;;;35.53;25.58;;;;;;;0.32;96.07;101731.34;4989479;28;20030;-62
2022/12/04 01:00:00;;;;;;;29.92;19.52;;;;;;;0.31;95.45;101727.78;4997112;28;20049;-63
2022/12/04 01:02:25;;;;;;;47.88;27.58;;;;;;;0.18;96.29;101735.31;5002118;28;20209;-62
2022/12/04 01:04:50;;;;;;;43.70;24.20;;;;;;;0.34;96.11;101741.00;5007634;28;20056;-63
2022/12/04 01:07:15;;;;;;;34.97;20.70;;;;;;;0.24;95.98;101730.19;5009085;28;20025;-62
2022/12/04 01:09:41;;;;;;;45.90;25.55;;;;;;;0.20;96.89;101726.09;5007027;28;20034;-62
2022/12/04 01:12:06;;;;;;;34.38;22.33;;;;;;;0.51;94.65;101734.88;5007656;28;20037;-62
2022/12/04 01:14:31;;;;;;;45.25;28.83;;;;;;;0.30;95.04;101741.41;5008766;28;20068;-62
2022/12/04 01:16:57;;;;;;;40.53;22.88;;;;;;;0.33;95.71;101741.16;5009125;28;20030;-62
2022/12/04 01:19:22;;;;;;;38.42;22.75;;;;;;;0.20;96.59;101731.50;5006713;28;20037;-62
2022/12/04 01:21:48;;;;;;;42.13;20.73;;;;;;;0.31;95.34;101746.69;5001884;28;20044;-62
2022/12/04 01:24:13;;;;;;;37.63;24.75;;;;;;;0.60;95.05;101737.72;5008381;28;20061;-62
2022/12/04 01:26:38;;;;;;;39.60;23.35;;;;;;;0.43;94.45;101737.44;5008849;28;20034;-62
2022/12/04 01:29:03;;;;;;;44.17;24.58;;;;;;;0.09;97.28;101750.50;5009986;28;20488;-62
2022/12/04 01:31:29;;;;;;;49.72;28.42;;;;;;;0.18;96.37;101746.13;5028073;28;20026;-62
2022/12/04 01:33:55;;;;;;;45.92;25.33;;;;;;;0.21;96.36;101732.34;5006222;28;20026;-62
2022/12/04 01:36:23;;;;;;;35.92;22.88;;;;;;;0.54;93.88;101741.84;5008397;28;20045;-62
2022/12/04 01:38:49;;;;;;;48.45;26.85;;;;;;;0.25;96.71;101745.44;5007010;28;20949;-61
2022/12/04 01:41:17;;;;;;;40.47;23.80;;;;;;;0.38;94.51;101738.88;5007683;28;20041;-62
2022/12/04 01:43:42;;;;;;;46.53;28.25;;;;;;;0.16;97.14;101742.72;5008509;28;20444;-62
2022/12/04 01:46:08;;;;;;;46.13;29.00;;;;;;;-0.01;98.37;101742.38;5006818;28;20030;-62
2022/12/04 01:48:40;;;;;;;45.60;28.00;;;;;;;0.13;98.22;101738.44;5007798;28;20030;-62
2022/12/04 01:51:13;;;;;;;40.05;32.70;;;;;;;0.92;93.26;101727.41;5011474;28;20038;-62
2022/12/04 01:53:42;;;;;;;41.03;29.85;;;;;;;0.79;94.42;101729.56;5015121;28;20034;-62
2022/12/04 01:56:09;;;;;;;47.17;27.60;;;;;;;0.49;94.82;101717.94;5023204;28;20034;-62
2022/12/04 01:58:40;;;;;;;47.47;29.65;;;;;;;0.31;95.49;101730.50;5013844;28;20103;-62
2022/12/04 02:01:07;;;;;;;37.28;24.50;;;;;;;0.37;96.03;101721.81;4998584;28;20029;-62
2022/12/04 02:03:32;;;;;;;38.65;24.35;;;;;;;0.42;95.02;101724.94;5020574;28;20022;-63
2022/12/04 02:05:58;;;;;;;39.55;26.65;;;;;;;0.52;93.72;101714.97;5012272;28;20041;-62
2022/12/04 02:08:25;;;;;;;38.47;23.67;;;;;;;0.36;94.89;101720.09;5032069;28;20069;-62
2022/12/04 02:11:02;;;;;;;36.65;28.33;;;;;;;0.72;94.04;101714.94;5024138;28;20120;-63
2022/12/04 02:13:34;;;;;;;41.45;31.25;;;;;;;0.55;94.85;101710.25;5031580;28;20112;-62
2022/12/04 02:16:24;;;;;;;39.05;21.90;;;;;;;0.33;95.30;101728.47;5029106;28;20541;-63
2022/12/04 02:19:32;;;;;;;46.90;28.73;;;;;;;0.28;96.60;101727.22;5030229;28;20029;-62
2022/12/04 02:21:58;;;;;;;;;;;;;;;0.77;94.55;101721.63;5005518;28;20030;-62
2022/12/04 02:24:46;;;;;;;47.20;38.55;;;;;;;0.97;92.96;101719.72;5012821;28;19925;-62
2022/12/04 02:27:19;;;;;;;;;;;;;;;0.33;94.83;101725.78;5026875;28;20069;-62
2022/12/04 02:29:58;;;;;;;46.65;29.48;;;;;;;0.15;96.46;101722.06;5024239;28;19916;-62
2022/12/04 02:32:50;;;;;;;33.30;24.38;;;;;;;0.47;95.90;101722.66;5019694;28;20432;-62
2022/12/04 02:35:24;;;;;;;43.85;26.33;;;;;;;0.35;96.20;101721.06;5011460;28;20057;-62
2022/12/04 02:38:14;;;;;;;33.28;19.63;;;;;;;0.68;94.35;101718.94;5012163;28;20029;-62
2022/12/04 02:41:17;;;;;;;44.33;30.70;;;;;;;0.66;94.13;101721.78;5007066;28;20046;-62
2022/12/04 02:43:53;;;;;;;38.90;24.35;;;;;;;0.60;94.08;101711.53;5009952;28;20044;-62
2022/12/04 02:46:25;;;;;;;43.95;29.23;;;;;;;0.66;94.50;101715.50;5013143;28;20064;-62
2022/12/04 02:48:56;;;;;;;46.38;28.15;;;;;;;0.25;96.42;101722.94;5024837;28;20084;-63
2022/12/04 02:51:25;;;;;;;39.90;21.73;;;;;;;0.18;96.88;101719.94;5018423;28;20065;-61
2022/12/04 02:53:58;;;;;;;41.80;30.83;;;;;;;0.59;93.83;101715.22;5027950;28;20060;-63
2022/12/04 02:56:27;;;;;;;49.85;42.40;;;;;;;0.85;93.83;101710.06;5027362;28;20072;-62
2022/12/04 02:59:03;;;;;;;44.38;25.38;;;;;;;0.31;95.60;101700.78;5010711;28;20025;-62
2022/12/04 03:01:37;;;;;;;35.38;24.80;;;;;;;0.36;95.35;101701.19;5016125;28;20041;-62
2022/12/04 03:04:14;;;;;;;49.88;29.23;;;;;;;0.17;96.84;101703.91;5012608;28;20121;-63
2022/12/04 03:06:43;;;;;;;43.60;36.80;;;;;;;0.71;95.88;101697.88;5030427;28;20052;-62
2022/12/04 03:09:16;;;;;;;32.13;26.90;;;;;;;0.54;96.18;101689.63;5017788;28;20121;-62
2022/12/04 03:11:48;;;;;;;44.47;27.83;;;;;;;0.35;96.37;101701.31;5009670;28;20034;-62
2022/12/04 03:14:26;;;;;;;40.22;28.58;;;;;;;0.62;94.98;101692.47;5022404;28;20033;-62
2022/12/04 03:16:56;;;;;;;48.35;30.45;;;;;;;0.11;96.96;101699.06;5030423;28;20056;-62
2022/12/04 03:19:32;;;;;;;35.22;28.35;;;;;;;0.44;96.62;101698.59;5027511;28;20557;-62
2022/12/04 03:22:03;;;;;;;42.08;26.55;;;;;;;0.15;96.66;101700.47;5016720;28;20033;-62
2022/12/04 03:24:33;;;;;;;37.40;24.85;;;;;;;0.34;96.27;101697.75;5010855;28;20080;-62
2022/12/04 03:27:13;;;;;;;36.70;22.35;;;;;;;0.44;96.57;101704.00;5013530;28;20487;-62
2022/12/04 03:29:38;;;;;;;46.03;29.75;;;;;;;0.17;96.87;101701.19;5029393;28;20087;-62
2022/12/04 03:32:26;;;;;;;41.67;24.07;;;;;;;0.64;94.83;101698.59;5028612;28;20435;-62
2022/12/04 03:35:06;;;;;;;46.95;29.10;;;;;;;0.21;97.04;101698.06;4990930;28;20058;-63
2022/12/04 03:37:43;;;;;;;38.15;23.45;;;;;;;0.43;95.81;101694.19;5018601;28;20053;-63
2022/12/04 03:40:38;;;;;;;46.45;29.88;;;;;;;0.40;96.73;101701.72;5019313;28;20041;-62
2022/12/04 03:43:28;;;;;;;47.30;29.67;;;;;;;0.49;96.81;101698.19;5030132;28;20071;-63
2022/12/04 03:46:08;;;;;;;47.28;28.83;;;;;;;0.19;96.97;101702.75;5018854;28;20031;-62
2022/12/04 03:48:45;;;;;;;46.83;28.30;;;;;;;0.22;96.74;101696.22;5027225;28;20037;-63
2022/12/04 03:51:35;;;;;;;43.30;38.60;;;;;;;1.01;93.45;101688.69;5029980;28;20056;-62
2022/12/04 03:54:20;;;;;;;46.30;28.85;;;;;;;0.32;95.35;101697.06;5028131;28;20128;-63
2022/12/04 03:56:52;;;;;;;46.60;29.05;;;;;;;0.17;96.77;101695.78;5022919;28;20461;-62
2022/12/04 03:59:32;;;;;;;46.17;30.40;;;;;;;0.01;98.36;101696.34;5018801;28;20110;-62
2022/12/04 04:02:01;;;;;;;47.65;29.52;;;;;;;0.13;97.70;101692.50;5028425;28;20053;-62
2022/12/04 04:04:33;;;;;;;38.83;32.08;;;;;;;0.87;94.21;101694.56;5029293;28;20100;-62
2022/12/04 04:07:14;;;;;;;34.83;25.33;;;;;;;0.67;94.43;101688.34;5028683;28;20692;-63
2022/12/04 04:09:44;;;;;;;37.88;24.30;;;;;;;0.32;95.69;101686.25;5019414;28;20034;-62
2022/12/04 04:12:14;;;;;;;47.05;29.45;;;;;;;0.14;97.44;101690.66;5010058;28;20018;-62
2022/12/04 04:26:06;;;;;;;36.20;22.98;;;;;;;0.24;96.74;101696.91;5028610;28;20096;-62
2022/12/04 04:28:37;;;;;;;37.42;31.38;;;;;;;0.84;94.43;101685.88;5009351;28;20038;-63
2022/12/04 04:31:57;;;;;;;51.22;45.53;;;;;;;1.06;92.88;101679.25;5024184;28;20030;-62
2022/12/04 04:34:36;;;;;;;29.40;18.33;;;;;;;0.44;96.11;101684.25;4991316;28;20041;-62
2022/12/04 04:37:07;;;;;;;46.80;30.25;;;;;;;0.49;94.43;101687.38;4994655;28;20030;-63
2022/12/04 04:39:35;;;;;;;36.20;23.75;;;;;;;0.39;95.62;101687.38;5028646;28;20104;-62
2022/12/04 04:42:23;;;;;;;46.08;30.90;;;;;;;0.34;95.73;101678.00;5023826;28;20018;-63
2022/12/04 04:45:02;;;;;;;35.95;26.65;;;;;;;0.89;93.90;101689.84;5027668;28;20084;-62
2022/12/04 04:47:36;;;;;;;40.85;35.10;;;;;;;0.89;93.35;101683.59;5027981;28;20026;-61
2022/12/04 04:50:06;;;;;;;37.88;24.02;;;;;;;0.49;93.92;101690.91;5013774;28;20030;-62
2022/12/04 04:52:33;;;;;;;45.20;27.58;;;;;;;0.21;96.79;101683.72;5008578;28;20025;-63
2022/12/04 04:55:00;;;;;;;42.72;26.38;;;;;;;0.16;97.33;101686.84;5026437;28;20120;-62
2022/12/04 04:57:27;;;;;;;34.33;23.90;;;;;;;0.48;96.18;101691.06;5017676;28;20105;-62
2022/12/04 04:59:52;;;;;;;32.45;20.65;;;;;;;0.48;94.96;101689.22;5021667;28;20112;-62
2022/12/04 05:02:18;;;;;;;45.65;28.25;;;;;;;0.20;96.71;101692.78;5027800;28;20439;-62
2022/12/04 05:04:43;;;;;;;35.95;28.00;;;;;;;0.70;95.17;101690.72;5014943;28;20428;-62
2022/12/04 05:07:08;;;;;;;40.80;36.50;;;;;;;0.97;94.06;101687.25;5021234;28;20029;-62
2022/12/04 05:09:33;;;;;;;42.03;27.77;;;;;;;0.61;93.64;101691.63;5022660;28;20057;-63
2022/12/04 05:11:58;;;;;;;43.15;28.70;;;;;;;0.45;94.81;101688.66;5028749;28;20040;-62
2022/12/04 05:14:24;;;;;;;31.63;22.83;;;;;;;0.41;96.29;101680.00;5028820;28;20036;-62
2022/12/04 05:16:49;;;;;;;32.78;25.95;;;;;;;0.53;95.28;101688.78;5028249;28;20542;-62
2022/12/04 05:21:58;;;;;;;38.03;26.63;;;;;;;0.71;93.60;101691.59;5027288;28;20076;-62
2022/12/04 05:24:24;;;;;;;42.15;26.50;;;;;;;0.20;96.77;101690.09;5015615;28;20448;-62
2022/12/04 05:26:49;;;;;;;43.13;28.95;;;;;;;0.19;97.42;101699.19;5007516;28;20108;-62
2022/12/04 05:29:14;;;;;;;41.80;28.52;;;;;;;0.40;96.01;101689.06;5006999;28;20072;-62
2022/12/04 05:31:39;;;;;;;38.17;23.42;;;;;;;0.30;97.53;101692.78;5022708;28;20029;-63
2022/12/04 05:34:05;;;;;;;46.35;31.02;;;;;;;0.24;97.44;101700.47;5008453;28;20032;-62
2022/12/04 05:36:30;;;;;;;34.22;25.55;;;;;;;0.48;97.38;101696.47;5006924;28;20045;-62
2022/12/04 05:38:55;;;;;;;45.97;28.42;;;;;;;0.36;96.91;101695.78;5008271;28;20057;-62
2022/12/04 05:41:20;;;;;;;30.00;19.55;;;;;;;0.43;97.64;101696.91;5020488;28;20026;-62
2022/12/04 05:43:46;;;;;;;37.67;22.67;;;;;;;0.24;98.32;101694.22;5008649;28;20042;-62
2022/12/04 05:46:11;;;;;;;47.60;30.08;;;;;;;0.25;97.60;101698.63;5008933;28;20018;-62
2022/12/04 05:48:36;;;;;;;32.78;20.67;;;;;;;0.20;98.98;101687.38;5005682;28;20060;-62
2022/12/04 05:51:09;;;;;;;34.38;25.52;;;;;;;0.81;96.05;101686.16;5008545;28;20018;-63
2022/12/04 05:53:35;;;;;;;39.55;26.85;;;;;;;0.24;97.59;101683.41;5007180;28;20038;-62
2022/12/04 05:56:02;;;;;;;37.65;31.02;;;;;;;0.80;96.48;101674.50;5027759;28;20087;-63
2022/12/04 05:58:28;;;;;;;41.95;29.40;;;;;;;0.62;96.45;101673.56;5007783;28;20036;-62
2022/12/04 06:00:54;;;;;;;36.42;23.70;;;;;;;0.71;94.74;101678.06;5028378;28;20021;-62
2022/12/04 06:03:19;;;;;;;44.03;28.05;;;;;;;0.56;95.20;101675.00;5027638;28;20053;-62
2022/12/04 06:05:44;;;;;;;45.65;29.55;;;;;;;0.49;95.57;101681.97;5028387;28;20415;-61
2022/12/04 06:08:10;;;;;;;48.40;42.58;;;;;;;1.12;94.18;101662.44;5019269;28;20041;-62
2022/12/04 06:10:35;;;;;;;42.38;29.15;;;;;;;0.25;97.60;101669.78;5012241;28;20030;-62
2022/12/04 06:13:00;;;;;;;31.67;27.48;;;;;;;0.65;96.76;101667.84;5022565;28;20416;-63
2022/12/04 06:15:25;;;;;;;31.80;24.33;;;;;;;0.83;94.96;101663.38;5028660;28;20668;-62
2022/12/04 06:17:51;;;;;;;35.13;25.58;;;;;;;0.62;95.72;101668.16;5027569;28;20026;-63
2022/12/04 06:20:16;;;;;;;32.22;23.50;;;;;;;0.79;95.31;101672.78;5017762;28;20022;-62
2022/12/04 06:22:42;;;;;;;35.05;24.65;;;;;;;0.49;97.05;101672.00;5005320;28;20057;-62
2022/12/04 06:25:07;;;;;;;40.03;35.03;;;;;;;0.89;95.73;101668.19;5007754;28;20022;-61
2022/12/04 06:27:33;;;;;;;27.48;17.90;;;;;;;0.36;96.88;101668.78;5007772;28;20037;-63
2022/12/04 06:29:58;;;;;;;30.67;23.02;;;;;;;0.83;94.92;101668.81;5008640;28;20030;-62
2022/12/04 06:32:23;;;;;;;30.23;21.20;;;;;;;0.82;94.21;101669.81;5005493;28;20026;-62
2022/12/04 06:34:53;;;;;;;35.22;24.38;;;;;;;0.63;94.51;101681.50;5008118;28;20026;-62
2022/12/04 06:37:20;;;;;;;36.30;25.35;;;;;;;0.46;96.00;101672.31;5019399;28;20076;-62
2022/12/04 06:39:45;;;;;;;39.67;25.38;;;;;;;0.50;95.85;101684.50;4999017;28;20343;-62
2022/12/04 06:42:11;;;;;;;27.50;18.25;;;;;;;0.29;97.95;101691.09;5007130;28;20044;-62
2022/12/04 06:44:36;;;;;;;35.10;28.63;;;;;;;0.92;94.35;101678.75;5007766;28;20030;-62
2022/12/04 06:47:01;;;;;;;38.80;27.13;;;;;;;0.37;97.21;101677.72;5009291;28;20053;-63
2022/12/04 06:49:27;;;;;;;38.28;25.63;;;;;;;0.56;96.04;101671.41;5030659;28;20065;-62
2022/12/04 06:51:52;;;;;;;39.58;28.33;;;;;;;0.34;96.80;101681.56;5012611;28;20119;-61
2022/12/04 06:54:17;;;;;;;28.90;24.60;;;;;;;0.52;97.25;101677.13;5005645;28;20366;-63
2022/12/04 06:56:42;;;;;;;35.40;24.00;;;;;;;0.30;97.72;101685.53;5010878;28;20033;-62
2022/12/04 06:59:09;;;;;;;38.15;26.40;;;;;;;0.30;98.11;101692.78;5011044;28;20153;-62
2022/12/04 07:01:34;;;;;;;39.35;28.00;;;;;;;0.49;96.10;101687.38;5011227;28;20041;-62
2022/12/04 07:04:02;;;;;;;38.35;25.08;;;;;;;0.60;95.12;101689.91;5008971;28;20045;-62
2022/12/04 07:06:33;;;;;;;36.63;25.98;;;;;;;0.35;97.44;101690.50;5019357;28;21555;-62
2022/12/04 07:09:02;;;;;;;35.83;21.63;;;;;;;0.39;97.43;101690.06;5015470;28;20026;-62
2022/12/04 07:11:28;;;;;;;30.67;23.00;;;;;;;0.66;96.20;101694.75;5031208;28;20129;-62
2022/12/04 07:13:54;;;;;;;26.95;23.35;;;;;;;0.94;94.66;101702.94;5014691;28;20100;-63
2022/12/04 07:16:21;;;;;;;24.67;19.67;;;;;;;0.78;94.59;101704.38;5011396;28;20306;-64
2022/12/04 07:18:49;;;;;;;27.83;20.05;;;;;;;0.46;97.19;101704.75;5012765;28;20025;-62
2022/12/04 07:21:17;;;;;;;38.42;27.00;;;;;;;0.33;97.84;101717.69;5020978;28;20029;-62
2022/12/04 07:23:43;;;;;;;26.15;21.65;;;;;;;0.77;95.43;101712.66;5009036;28;20030;-62
2022/12/04 07:26:10;;;;;;;33.65;25.13;;;;;;;0.77;94.86;101709.94;5010484;28;20365;-63
2022/12/04 07:28:36;;;;;;;29.15;18.20;;;;;;;0.39;96.52;101718.94;5010291;28;20120;-62
2022/12/04 07:31:04;;;;;;;33.65;21.38;;;;;;;0.35;97.05;101728.34;5010831;28;20388;-62
2022/12/04 07:33:29;;;;;;;33.40;21.55;;;;;;;0.33;98.39;101717.69;5008910;28;20033;-62
2022/12/04 07:35:56;;;;;;;25.67;21.75;;;;;;;0.58;97.99;101715.38;5028492;28;20037;-62
2022/12/04 07:38:22;;;;;;;37.70;25.38;;;;;;;0.31;98.00;101724.22;5008410;28;21938;-62
2022/12/04 07:40:47;;;;;;;28.42;21.27;;;;;;;0.52;97.43;101716.81;5020904;28;20112;-62
2022/12/04 07:43:12;;;;;;;34.83;24.33;;;;;;;0.68;95.45;101719.78;5021758;28;20054;-62
2022/12/04 07:45:38;;;;;;;33.35;24.38;;;;;;;0.35;97.94;101712.13;5029481;28;20468;-62
2022/12/04 07:48:03;;;;;;;25.23;20.10;;;;;;;0.86;95.40;101711.75;5013361;28;20124;-62
2022/12/04 07:50:29;;;;;;;26.33;17.20;;;;;;;0.43;97.34;101706.88;5010845;28;20416;-62
2022/12/04 07:52:54;;;;;;;31.85;22.48;;;;;;;0.32;98.08;101718.69;5008697;28;20006;-62
2022/12/04 07:55:19;;;;;;;20.27;17.15;;;;;;;0.53;97.75;101721.22;5016353;28;20396;-62
2022/12/04 07:57:44;;;;;;;31.45;28.10;;;;;;;1.01;94.63;101721.13;5029213;28;20029;-62
2022/12/04 08:00:10;;;;;;;24.40;16.95;;;;;;;0.74;94.97;101724.59;5011364;28;20036;-62
2022/12/04 08:02:36;;;;;;;28.45;20.67;;;;;;;0.51;96.67;101723.22;5013064;28;20030;-62
2022/12/04 08:05:01;;;;;;;32.72;23.50;;;;;;;0.24;98.17;101727.47;5022443;28;20465;-63
2022/12/04 08:07:26;;;;;;;32.58;24.30;;;;;;;0.25;99.41;101731.03;5009720;28;20029;-62
2022/12/04 08:09:51;;;;;;;28.92;25.92;;;;;;;1.08;94.14;101720.53;5009545;28;20429;-62
2022/12/04 08:12:17;;;;;;;30.85;21.98;;;;;;;0.82;93.79;101721.19;5006467;28;20034;-62
2022/12/04 08:53:03;;;;;;;30.42;20.00;;;;;;;0.31;97.28;101733.19;5065305;28;20394;-76
2022/12/04 08:55:28;;;;;;;29.00;25.13;;;;;;;0.50;96.87;101721.50;5065461;28;20028;-63
2022/12/04 08:57:53;;;;;;;25.95;17.17;;;;;;;0.52;97.47;101720.38;5063447;28;20039;-62
2022/12/04 09:00:19;;;;;;;41.28;28.63;;;;;;;0.39;98.56;101730.63;5062050;28;20081;-74
2022/12/04 09:02:48;;;;;;;28.05;19.23;;;;;;;0.60;97.80;101727.75;5064681;28;20033;-66
2022/12/04 09:05:14;;;;;;;30.40;27.30;;;;;;;1.01;96.78;101715.72;5058539;28;20056;-69
2022/12/04 09:07:39;;;;;;;28.15;21.00;;;;;;;1.01;94.72;101721.13;5058942;28;20052;-67
2022/12/04 09:10:05;;;;;;;24.83;22.23;;;;;;;1.21;93.65;101721.03;5062496;28;20028;-65
2022/12/04 09:12:30;;;;;;;28.35;21.15;;;;;;;0.83;95.35;101724.75;5061591;28;20039;-67
2022/12/04 09:14:55;;;;;;;29.42;21.85;;;;;;;0.78;95.91;101730.59;5062740;28;20028;-70
2022/12/04 09:17:20;;;;;;;28.33;20.05;;;;;;;0.75;96.75;101725.44;5064283;28;20024;-67
2022/12/04 09:19:46;;;;;;;28.48;22.05;;;;;;;0.67;97.36;101730.75;5065574;28;20033;-65
2022/12/04 09:22:11;;;;;;;26.48;19.25;;;;;;;0.90;95.73;101723.13;5064988;28;20410;-63
2022/12/04 09:24:36;;;;;;;25.27;19.13;;;;;;;1.17;93.13;101728.63;5061860;28;20068;-73
2022/12/04 09:27:01;;;;;;;17.27;13.25;;;;;;;1.10;94.90;101732.91;5064819;28;20029;-67
2022/12/04 09:29:27;;;;;;;26.67;19.98;;;;;;;0.89;96.63;101732.25;5065611;28;20021;-66
2022/12/04 09:31:52;;;;;;;23.38;17.98;;;;;;;1.15;94.97;101735.16;5063793;28;20033;-64
2022/12/04 09:34:17;;;;;;;26.73;19.98;;;;;;;0.94;95.64;101748.91;5061647;28;20012;-61
2022/12/04 09:36:42;;;;;;;60.47;44.90;;;;;;;0.91;96.71;101747.34;5063334;28;20029;-59
2022/12/04 09:39:09;;;;;;;21.00;16.17;;;;;;;1.16;94.88;101743.13;5063902;28;20028;-63
2022/12/04 09:41:37;;;;;;;25.48;19.10;;;;;;;0.98;95.51;101747.63;5064898;28;20111;-71
2022/12/04 09:44:14;;;;;;;22.17;15.88;;;;;;;1.24;91.93;101737.00;5062942;28;20401;-65
2022/12/04 09:46:59;;;;;;;21.17;15.73;;;;;;;0.83;95.21;101746.38;5052625;28;20048;-63
2022/12/04 09:49:49;;;;;;;19.45;13.30;;;;;;;1.19;94.58;101742.00;5044015;28;20029;-65
2022/12/04 09:52:43;;;;;;;23.20;17.80;;;;;;;1.17;92.56;101742.16;5043462;28;20053;-65
2022/12/04 09:55:18;;;;;;;27.45;21.17;;;;;;;0.95;93.12;101746.03;5063168;28;20071;-71
2022/12/04 09:57:47;;;;;;;36.10;28.13;;;;;;;0.83;94.64;101738.25;5061173;28;20035;-66
2022/12/04 10:00:15;;;;;;;24.20;18.90;;;;;;;0.81;94.96;101742.94;5055062;28;20024;-61
2022/12/04 10:02:44;;;;;;;19.73;15.65;;;;;;;1.42;89.37;101727.09;5057818;28;20060;-62
2022/12/04 10:05:21;;;;;;;18.85;14.40;;;;;;;1.32;90.72;101731.72;5048536;28;20040;-60
2022/12/04 10:08:07;;;;;;;18.20;12.13;;;;;;;1.30;92.17;101731.84;5044326;28;20059;-60
2022/12/04 10:10:45;;;;;;;20.35;14.68;;;;;;;1.16;90.59;101737.72;5044316;28;20017;-61
2022/12/04 10:13:39;;;;;;;17.98;13.40;;;;;;;1.25;91.86;101741.41;5047803;28;20381;-60
2022/12/04 10:16:26;;;;;;;16.60;11.85;;;;;;;0.97;93.32;101741.34;5046879;28;20039;-60
2022/12/04 10:19:16;;;;;;;19.80;15.23;;;;;;;0.92;92.33;101740.94;5048587;28;20078;-61
2022/12/04 10:21:41;;;;;;;15.52;12.70;;;;;;;1.26;90.90;101727.72;5048358;28;20420;-60
2022/12/04 10:24:31;;;;;;;19.00;14.17;;;;;;;1.04;91.74;101737.06;5047269;28;20103;-60
2022/12/04 10:27:00;;;;;;;21.60;15.75;;;;;;;0.69;94.29;101731.44;5047364;28;20310;-60
2022/12/04 10:29:32;;;;;;;18.85;16.95;;;;;;;1.40;90.91;101725.53;5044049;28;20039;-60
2022/12/04 10:32:16;;;;;;;20.08;16.70;;;;;;;1.60;89.26;101715.47;5049182;28;20108;-60
2022/12/04 10:34:43;;;;;;;28.25;25.55;;;;;;;1.69;87.95;101720.84;5048722;28;20036;-61
2022/12/04 10:37:13;;;;;;;16.27;14.50;;;;;;;1.30;90.17;101728.28;5047538;28;20021;-60
2022/12/04 10:39:50;;;;;;;21.25;16.48;;;;;;;0.71;93.53;101741.13;5049429;28;20375;-60
2022/12/04 10:42:40;;;;;;;19.00;16.98;;;;;;;1.43;90.37;101719.84;5029569;28;20021;-60
2022/12/04 10:45:06;;;;;;;21.52;16.50;;;;;;;0.86;92.60;101736.09;5039406;28;20032;-60
2022/12/04 10:47:32;;;;;;;21.52;16.77;;;;;;;0.70;93.28;101735.84;5048378;28;20037;-60
2022/12/04 11:21:03;;;;;;;23.80;15.60;;;;;;;0.52;95.12;101708.72;5165732;27;20361;-59
2022/12/04 11:23:33;;;;;;;22.05;17.42;;;;;;;0.42;96.33;101708.72;5143227;27;20031;-60
2022/12/04 11:25:59;;;;;;;22.45;17.63;;;;;;;0.42;96.94;101706.00;5146570;27;20115;-60
2022/12/04 11:28:29;;;;;;;18.73;16.45;;;;;;;0.79;95.56;101699.84;5143897;27;20054;-59
2022/12/04 11:30:58;;;;;;;16.83;13.60;;;;;;;0.67;97.08;101701.00;5143923;27;20023;-59
2022/12/04 11:33:34;;;;;;;24.63;20.05;;;;;;;0.55;97.05;101699.44;5145902;27;20369;-59
2022/12/04 11:36:05;;;;;;;20.50;16.58;;;;;;;0.62;97.09;101690.63;5146818;27;20074;-59
2022/12/04 11:38:33;;;;;;;21.02;17.52;;;;;;;0.51;97.48;101694.34;5146726;27;20031;-61
2022/12/04 11:41:01;;;;;;;20.85;15.82;;;;;;;0.76;96.33;101692.00;5144733;27;20113;-60
2022/12/04 11:43:29;;;;;;;20.77;16.23;;;;;;;0.71;97.00;101686.19;5146715;27;20407;-60
2022/12/04 11:46:00;;;;;;;16.90;13.77;;;;;;;1.07;95.32;101680.97;5145963;27;20079;-59
2022/12/04 11:48:27;;;;;;;15.55;13.80;;;;;;;1.05;93.71;101678.38;5143497;27;20023;-60
2022/12/04 11:51:04;;;;;;;19.98;17.98;;;;;;;1.30;94.30;101676.88;5143782;27;20034;-59
2022/12/04 11:54:03;;;;;;;16.83;13.93;;;;;;;1.25;92.42;101690.00;5120015;28;20031;-61
2022/12/04 11:56:39;;;;;;;17.60;15.23;;;;;;;1.15;91.82;101689.19;5138654;27;20377;-60
2022/12/04 11:59:23;;;;;;;18.20;15.43;;;;;;;0.69;95.28;101683.63;5143309;27;20027;-60
2022/12/04 12:02:14;;;;;;;17.45;14.27;;;;;;;0.78;95.45;101684.63;5143817;27;20031;-60
2022/12/04 12:05:07;;;;;;;18.85;14.88;;;;;;;0.73;96.65;101686.91;5125438;28;20058;-59
2022/12/04 12:08:10;;;;;;;18.63;15.18;;;;;;;0.63;97.32;101681.50;5125770;28;20144;-59
2022/12/04 12:10:41;;;;;;;17.00;15.02;;;;;;;0.82;95.66;101675.22;5106301;27;20031;-60
2022/12/04 12:13:28;;;;;;;19.58;16.23;;;;;;;0.76;97.08;101673.06;5121539;27;20102;-60
2022/12/04 12:16:28;;;;;;;16.30;12.73;;;;;;;0.83;95.95;101676.91;5124815;28;20100;-59
2022/12/04 12:18:58;;;;;;;17.45;14.10;;;;;;;1.13;94.89;101661.44;5143229;27;20078;-59
2022/12/04 12:21:35;;;;;;;15.40;13.85;;;;;;;1.47;90.88;101657.13;5144142;27;20110;-59
2022/12/04 12:24:19;;;;;;;14.90;12.60;;;;;;;1.22;91.52;101657.84;5144503;27;20031;-61
2022/12/04 12:26:48;;;;;;;17.67;14.80;;;;;;;0.92;93.77;101656.25;5125416;27;20023;-59
2022/12/04 12:29:41;;;;;;;17.40;14.38;;;;;;;0.99;94.60;101663.63;5144933;27;20489;-59
2022/12/04 12:32:57;;;;;;;16.33;12.88;;;;;;;1.08;94.11;101655.63;5130062;27;20023;-59
2022/12/04 12:35:32;;;;;;;17.80;15.02;;;;;;;0.77;95.39;101650.47;5093072;27;20062;-60
2022/12/04 12:38:16;;;;;;;16.00;12.50;;;;;;;1.02;95.52;101663.34;5127587;27;20076;-59
2022/12/04 12:40:46;;;;;;;19.20;16.35;;;;;;;0.81;95.68;101659.97;5118790;27;20079;-59
2022/12/04 12:43:29;;;;;;;18.20;15.45;;;;;;;0.86;96.06;101651.41;5129536;27;20377;-59
2022/12/04 12:46:11;;;;;;;15.50;13.15;;;;;;;1.14;93.55;101645.03;5130241;27;20019;-59
2022/12/04 12:49:04;;;;;;;15.35;12.15;;;;;;;0.99;93.77;101650.09;5128294;27;20027;-59
2022/12/04 12:51:37;;;;;;;17.33;14.60;;;;;;;0.97;94.28;101644.00;5130045;27;20042;-58
2022/12/04 12:54:29;;;;;;;17.08;14.85;;;;;;;0.98;96.24;101645.69;5119787;27;20027;-60
2022/12/04 12:57:04;;;;;;;17.90;15.23;;;;;;;0.81;96.37;101635.63;5119888;27;20030;-60
2022/12/04 12:59:31;;;;;;;14.68;11.48;;;;;;;1.11;94.27;101636.38;5120808;27;20119;-59